createdAt,value
2023-03-13T00:01:24.173Z,7.60
2023-03-13T00:03:52.940Z,7.60
2023-03-13T00:06:22.744Z,7.40
2023-03-13T00:08:50.720Z,7.40
2023-03-13T00:11:18.830Z,7.40
2023-03-13T00:13:49.468Z,7.40
2023-03-13T00:16:18.243Z,7.50
2023-03-13T00:18:48.346Z,7.40
2023-03-13T00:21:17.669Z,7.40
2023-03-13T00:23:47.925Z,7.50
2023-03-13T00:26:18.772Z,7.70
2023-03-13T00:28:47.640Z,7.60
2023-03-13T00:31:18.251Z,7.70
2023-03-13T00:33:48.513Z,7.80
2023-03-13T00:36:19.401Z,7.70
2023-03-13T00:38:48.809Z,7.80
2023-03-13T00:41:18.891Z,7.60
2023-03-13T00:43:48.286Z,7.60
2023-03-13T00:46:19.732Z,7.60
2023-03-13T00:48:48.150Z,7.70
2023-03-13T00:51:18.243Z,7.70
2023-03-13T00:53:48.372Z,7.60
2023-03-13T00:56:18.492Z,7.70
2023-03-13T00:58:48.298Z,7.70
2023-03-13T01:01:18.910Z,7.80
2023-03-13T01:03:51.307Z,7.70
2023-03-13T01:06:23.401Z,7.70
2023-03-13T01:08:53.194Z,7.80
2023-03-13T01:11:23.757Z,8.00
2023-03-13T01:13:56.359Z,7.90
2023-03-13T01:16:25.124Z,7.90
2023-03-13T01:18:55.535Z,7.80
2023-03-13T01:21:25.377Z,7.90
2023-03-13T01:23:55.561Z,7.90
2023-03-13T01:26:24.945Z,7.70
2023-03-13T01:28:53.162Z,7.80
2023-03-13T01:31:24.438Z,8.00
2023-03-13T01:33:56.111Z,7.80
2023-03-13T01:36:24.559Z,7.80
2023-03-13T01:38:56.543Z,7.90
2023-03-13T01:41:26.948Z,8.00
2023-03-13T01:43:56.181Z,8.10
2023-03-13T01:46:27.479Z,8.20
2023-03-13T01:49:01.760Z,8.20
2023-03-13T01:51:34.215Z,8.10
2023-03-13T01:54:10.312Z,8.30
2023-03-13T01:56:44.637Z,8.10
2023-03-13T01:59:16.642Z,8.00
2023-03-13T02:01:47.509Z,8.10
2023-03-13T02:04:17.224Z,8.20
2023-03-13T02:06:48.478Z,8.20
2023-03-13T02:09:21.099Z,8.30
2023-03-13T02:11:55.186Z,8.30
2023-03-13T02:14:28.622Z,8.30
2023-03-13T02:16:57.355Z,8.20
2023-03-13T02:19:34.454Z,8.20
2023-03-13T02:22:14.614Z,8.40
2023-03-13T02:24:55.679Z,8.40
2023-03-13T02:27:25.704Z,8.40
2023-03-13T02:29:54.613Z,8.30
2023-03-13T02:32:24.025Z,8.30
2023-03-13T02:34:57.610Z,8.30
2023-03-13T02:37:28.892Z,8.40
2023-03-13T02:39:58.385Z,8.50
2023-03-13T02:42:29.416Z,8.50
2023-03-13T02:44:57.480Z,8.60
2023-03-13T02:47:26.781Z,8.40
2023-03-13T02:49:54.717Z,8.40
2023-03-13T02:52:27.447Z,8.40
2023-03-13T02:55:00.995Z,8.50
2023-03-13T02:57:31.733Z,8.60
2023-03-13T02:59:59.720Z,8.60
2023-03-13T03:02:27.922Z,8.40
2023-03-13T03:04:55.916Z,8.40
2023-03-13T03:07:23.902Z,8.50
2023-03-13T03:09:51.865Z,8.60
2023-03-13T03:12:19.813Z,8.70
2023-03-13T03:14:49.262Z,8.80
2023-03-13T03:17:17.254Z,8.90
2023-03-13T03:19:45.298Z,8.90
2023-03-13T03:22:13.300Z,9.10
2023-03-13T03:24:41.346Z,9.10
2023-03-13T03:27:09.334Z,9.20
2023-03-13T03:29:37.315Z,9.20
2023-03-13T03:32:07.302Z,9.10
2023-03-13T03:34:35.359Z,9.30
2023-03-13T03:37:03.341Z,9.40
2023-03-13T03:39:31.326Z,9.40
2023-03-13T03:41:59.312Z,9.50
2023-03-13T03:44:27.459Z,9.60
2023-03-13T03:46:55.519Z,9.60
2023-03-13T03:49:24.867Z,9.60
2023-03-13T03:51:52.968Z,9.70
2023-03-13T03:54:20.943Z,9.60
2023-03-13T03:56:49.015Z,9.70
2023-03-13T03:59:17.009Z,9.80
2023-03-13T04:01:45.310Z,9.90
2023-03-13T04:04:13.324Z,9.90
2023-03-13T04:06:42.670Z,9.90
2023-03-13T04:09:10.681Z,9.90
2023-03-13T04:11:38.657Z,10.00
2023-03-13T04:14:06.981Z,10.00
2023-03-13T04:16:35.027Z,10.00
2023-03-13T04:19:03.067Z,10.10
2023-03-13T04:21:31.328Z,10.10
2023-03-13T04:24:00.714Z,10.20
2023-03-13T04:26:28.671Z,10.10
2023-03-13T04:28:56.756Z,10.20
2023-03-13T04:31:24.750Z,10.20
2023-03-13T04:33:52.750Z,10.30
2023-03-13T04:36:20.841Z,10.30
2023-03-13T04:38:48.846Z,10.30
2023-03-13T04:41:18.239Z,10.40
2023-03-13T04:43:46.207Z,10.40
2023-03-13T04:46:14.354Z,10.40
2023-03-13T04:48:42.435Z,10.50
2023-03-13T04:51:10.524Z,10.40
2023-03-13T04:53:38.493Z,10.30
2023-03-13T04:56:07.150Z,10.40
2023-03-13T04:58:36.569Z,10.40
2023-03-13T05:01:04.740Z,10.30
2023-03-13T05:03:32.734Z,10.30
2023-03-13T05:06:00.750Z,10.40
2023-03-13T05:08:28.742Z,10.50
2023-03-13T05:10:56.752Z,10.50
2023-03-13T05:13:24.922Z,10.40
2023-03-13T05:15:54.382Z,10.50
2023-03-13T05:18:22.559Z,10.50
2023-03-13T05:20:50.653Z,10.50
2023-03-13T05:23:18.668Z,10.50
2023-03-13T05:25:46.735Z,10.50
2023-03-13T05:28:14.707Z,10.60
2023-03-13T05:30:42.720Z,10.70
2023-03-13T05:33:12.039Z,10.80
2023-03-13T05:35:40.122Z,10.90
2023-03-13T05:38:08.220Z,10.90
2023-03-13T05:40:36.236Z,11.00
2023-03-13T05:43:04.324Z,11.10
2023-03-13T05:45:32.403Z,11.10
2023-03-13T05:48:00.816Z,11.10
2023-03-13T05:50:30.492Z,11.10
2023-03-13T05:52:58.496Z,11.10
2023-03-13T05:55:26.627Z,11.20
2023-03-13T05:57:54.671Z,11.20
2023-03-13T06:00:23.547Z,11.20
2023-03-13T06:02:51.558Z,11.20
2023-03-13T06:05:19.608Z,11.20
2023-03-13T06:07:50.748Z,11.30
2023-03-13T06:10:19.077Z,11.40
2023-03-13T06:12:54.479Z,11.50
2023-03-13T06:15:24.629Z,11.40
2023-03-13T06:17:52.689Z,11.50
2023-03-13T06:20:20.824Z,11.30
2023-03-13T06:22:50.208Z,11.30
2023-03-13T06:25:18.385Z,11.40
2023-03-13T06:27:46.354Z,11.50
2023-03-13T06:30:14.803Z,11.40
2023-03-13T06:32:42.977Z,11.50
2023-03-13T06:35:11.303Z,11.50
2023-03-13T06:37:39.934Z,11.60
2023-03-13T06:40:12.164Z,11.70
2023-03-13T06:42:41.414Z,11.80
2023-03-13T06:45:11.471Z,11.90
2023-03-13T06:47:39.483Z,11.90
2023-03-13T06:50:09.240Z,11.70
2023-03-13T06:52:43.987Z,11.70
2023-03-13T06:55:14.111Z,11.90
2023-03-13T06:57:42.186Z,11.90
2023-03-13T07:00:12.627Z,11.80
2023-03-13T07:02:40.674Z,11.90
2023-03-13T07:05:10.049Z,12.10
2023-03-13T07:07:38.005Z,12.10
2023-03-13T07:10:07.319Z,12.10
2023-03-13T07:12:37.178Z,12.10
2023-03-13T07:15:06.017Z,11.90
2023-03-13T07:17:34.138Z,11.90
2023-03-13T07:20:02.486Z,11.90
2023-03-13T07:22:30.480Z,12.10
2023-03-13T07:24:58.583Z,12.10
2023-03-13T07:27:26.645Z,12.20
2023-03-13T07:29:56.014Z,12.10
2023-03-13T07:32:24.440Z,12.10
2023-03-13T07:34:52.511Z,12.20
2023-03-13T07:37:20.484Z,12.10
2023-03-13T07:39:48.455Z,12.20
2023-03-13T07:42:16.431Z,12.30
2023-03-13T07:44:44.460Z,12.20
2023-03-13T07:47:13.786Z,12.20
2023-03-13T07:49:44.069Z,12.20
2023-03-13T07:52:12.878Z,12.30
2023-03-13T07:54:41.047Z,12.20
2023-03-13T07:57:09.194Z,12.20
2023-03-13T07:59:37.255Z,12.20
2023-03-13T08:02:06.024Z,12.30
2023-03-13T08:04:35.352Z,12.40
2023-03-13T08:07:03.328Z,12.40
2023-03-13T08:09:34.157Z,12.50
2023-03-13T08:12:02.225Z,12.40
2023-03-13T08:14:30.221Z,12.50
2023-03-13T08:16:58.232Z,12.50
2023-03-13T08:19:26.325Z,12.60
2023-03-13T08:21:55.749Z,12.60
2023-03-13T08:24:23.769Z,12.60
2023-03-13T08:26:51.778Z,12.50
2023-03-13T08:29:19.811Z,12.50
2023-03-13T08:31:51.452Z,12.60
2023-03-13T08:34:20.299Z,12.60
2023-03-13T08:36:48.772Z,12.70
2023-03-13T08:39:21.104Z,12.70
2023-03-13T08:41:49.536Z,12.60
2023-03-13T08:44:20.056Z,12.60
2023-03-13T08:46:49.105Z,12.70
2023-03-13T08:49:17.944Z,12.70
2023-03-13T08:51:46.196Z,12.70
2023-03-13T08:54:14.230Z,12.80
2023-03-13T08:56:44.058Z,12.70
2023-03-13T08:59:12.518Z,12.70
2023-03-13T09:01:40.532Z,12.90
2023-03-13T09:04:09.030Z,13.00
2023-03-13T09:06:39.219Z,13.10
2023-03-13T09:09:08.608Z,13.10
2023-03-13T09:11:37.876Z,13.00
2023-03-13T09:14:08.664Z,13.10
2023-03-13T09:16:37.119Z,13.20
2023-03-13T09:19:05.350Z,13.20
2023-03-13T09:21:35.867Z,13.40
2023-03-13T09:24:04.416Z,13.30
2023-03-13T09:26:32.639Z,13.40
2023-03-13T09:29:01.014Z,13.50
2023-03-13T09:31:33.190Z,13.40
2023-03-13T09:34:02.255Z,13.60
2023-03-13T09:36:30.423Z,13.70
2023-03-13T09:39:01.053Z,13.60
2023-03-13T09:41:38.248Z,13.80
2023-03-13T09:44:13.628Z,13.90
2023-03-13T09:46:49.650Z,13.90
2023-03-13T09:49:31.513Z,13.80
2023-03-13T09:52:15.201Z,13.80
2023-03-13T09:54:49.622Z,13.90
2023-03-13T09:57:26.426Z,13.80
2023-03-13T09:59:59.124Z,13.70
2023-03-13T10:02:33.069Z,13.70
2023-03-13T10:05:15.789Z,13.60
2023-03-13T10:07:44.037Z,13.50
2023-03-13T10:10:17.996Z,13.50
2023-03-13T10:12:48.316Z,13.60
2023-03-13T10:15:34.440Z,13.60
2023-03-13T10:18:19.548Z,13.50
2023-03-13T10:20:50.430Z,13.60
2023-03-13T10:23:24.646Z,13.50
2023-03-13T10:25:52.680Z,13.60
2023-03-13T10:28:22.499Z,13.50
2023-03-13T10:30:54.220Z,13.40
2023-03-13T10:33:28.868Z,13.40
2023-03-13T10:36:10.156Z,13.30
2023-03-13T10:38:49.995Z,13.10
2023-03-13T10:41:38.467Z,13.10
2023-03-13T10:44:13.829Z,12.90
2023-03-13T10:46:44.744Z,12.90
2023-03-13T10:49:19.158Z,12.90
2023-03-13T10:51:50.650Z,13.20
2023-03-13T10:54:25.987Z,13.20
2023-03-13T10:57:10.495Z,13.20
2023-03-13T10:59:44.681Z,13.30
2023-03-13T11:02:25.093Z,13.40
2023-03-13T11:04:54.839Z,13.30
2023-03-13T11:07:29.819Z,13.20
2023-03-13T11:10:04.945Z,13.20
2023-03-13T11:12:36.358Z,13.10
2023-03-13T11:15:14.735Z,13.30
2023-03-13T11:17:43.817Z,13.10
2023-03-13T11:20:24.258Z,13.20
2023-03-13T11:23:02.784Z,13.10
2023-03-13T11:25:37.198Z,13.20
2023-03-13T11:28:30.997Z,13.20
2023-03-13T11:31:12.603Z,13.30
2023-03-13T11:33:53.165Z,13.30
2023-03-13T11:36:28.880Z,13.40
2023-03-13T11:39:06.048Z,13.40
2023-03-13T11:41:49.825Z,13.60
2023-03-13T11:44:43.253Z,13.60
2023-03-13T11:47:46.514Z,13.60
2023-03-13T11:50:29.301Z,13.40
2023-03-13T11:53:18.013Z,13.40
2023-03-13T11:56:00.481Z,13.50
2023-03-13T11:58:52.861Z,13.30
2023-03-13T12:01:24.183Z,13.30
2023-03-13T12:04:00.117Z,13.30
2023-03-13T12:06:34.292Z,13.40
2023-03-13T12:09:13.671Z,13.50
2023-03-13T12:11:53.203Z,13.60
2023-03-13T12:14:27.582Z,13.60
2023-03-13T12:16:59.905Z,13.50
2023-03-13T12:19:34.407Z,13.80
2023-03-13T12:22:15.613Z,13.80
2023-03-13T12:24:51.607Z,13.80
2023-03-13T12:27:26.645Z,13.80
2023-03-13T12:30:00.049Z,13.70
2023-03-13T12:32:36.191Z,13.70
2023-03-13T12:35:18.008Z,13.70
2023-03-13T12:37:53.843Z,13.60
2023-03-13T12:40:29.581Z,13.50
2023-03-13T12:43:05.263Z,13.60
2023-03-13T12:45:34.989Z,13.70
2023-03-13T12:48:42.840Z,13.70
2023-03-13T12:51:35.908Z,13.70
2023-03-13T12:54:40.788Z,13.80
2023-03-13T12:57:55.251Z,13.70
2023-03-13T13:00:27.567Z,13.70
2023-03-13T13:03:11.507Z,13.50
2023-03-13T13:05:39.716Z,13.60
2023-03-13T13:08:26.192Z,13.80
2023-03-13T13:10:54.264Z,13.70
2023-03-13T13:13:32.423Z,13.70
2023-03-13T13:16:04.153Z,13.80
2023-03-13T13:18:33.463Z,13.90
2023-03-13T13:21:23.571Z,13.80
2023-03-13T13:23:54.150Z,13.90
2023-03-13T13:26:50.837Z,13.90
2023-03-13T13:29:57.118Z,14.10
2023-03-13T13:32:45.976Z,14.30
2023-03-13T13:35:33.209Z,14.50
2023-03-13T13:38:34.526Z,14.80
2023-03-13T13:41:06.980Z,15.10
2023-03-13T13:43:37.131Z,15.50
2023-03-13T13:46:28.658Z,15.70
2023-03-13T13:49:18.130Z,15.80
2023-03-13T13:52:40.503Z,15.90
2023-03-13T13:55:34.105Z,15.90
2023-03-13T13:58:05.627Z,16.20
2023-03-13T14:00:42.619Z,16.30
2023-03-13T14:03:23.240Z,16.30
2023-03-13T14:05:55.589Z,16.10
2023-03-13T14:08:29.577Z,16.20
2023-03-13T14:11:15.940Z,16.30
2023-03-13T14:13:44.031Z,16.20
2023-03-13T14:16:24.746Z,16.20
2023-03-13T14:18:54.882Z,15.90
2023-03-13T14:21:24.360Z,16.00
2023-03-13T14:23:53.020Z,15.90
2023-03-13T14:26:23.076Z,15.90
2023-03-13T14:28:54.012Z,16.00
2023-03-13T14:31:29.152Z,16.00
2023-03-13T14:34:00.836Z,15.90
2023-03-13T14:36:29.728Z,15.70
2023-03-13T14:38:59.784Z,15.70
2023-03-13T14:41:37.123Z,15.60
2023-03-13T14:44:07.420Z,15.20
2023-03-13T14:46:37.524Z,14.90
2023-03-13T14:49:20.601Z,14.60
2023-03-13T14:52:00.221Z,14.50
2023-03-13T14:54:32.322Z,14.50
2023-03-13T14:57:16.087Z,14.30
2023-03-13T14:59:45.162Z,14.20
2023-03-13T15:02:22.216Z,14.20
2023-03-13T15:04:59.556Z,14.10
2023-03-13T15:07:37.525Z,14.20
2023-03-13T15:10:21.482Z,14.00
2023-03-13T15:12:50.222Z,13.90
2023-03-13T15:15:18.902Z,13.80
2023-03-13T15:17:46.933Z,13.90
2023-03-13T15:20:17.636Z,13.80
2023-03-13T15:22:47.157Z,13.80
2023-03-13T15:25:20.558Z,13.90
2023-03-13T15:27:49.621Z,13.90
2023-03-13T15:30:19.298Z,14.00
2023-03-13T15:32:48.996Z,14.00
2023-03-13T15:35:28.989Z,14.10
2023-03-13T15:37:57.972Z,14.00
2023-03-13T15:40:27.303Z,14.10
2023-03-13T15:42:56.214Z,14.00
2023-03-13T15:45:24.495Z,14.00
2023-03-13T15:47:52.555Z,14.00
2023-03-13T15:50:31.206Z,13.90
2023-03-13T15:53:00.754Z,14.00
2023-03-13T15:55:30.560Z,14.00
2023-03-13T15:57:58.633Z,14.00
2023-03-13T16:00:28.323Z,13.90
2023-03-13T16:02:56.423Z,14.00
2023-03-13T16:05:25.797Z,14.10
2023-03-13T16:07:53.861Z,14.20
2023-03-13T16:10:25.873Z,14.20
2023-03-13T16:12:53.959Z,14.20
2023-03-13T16:15:22.218Z,14.20
2023-03-13T16:17:50.420Z,14.00
2023-03-13T16:20:22.173Z,14.00
2023-03-13T16:22:53.581Z,14.10
2023-03-13T16:25:22.284Z,14.20
2023-03-13T16:27:50.652Z,14.10
2023-03-13T16:30:24.320Z,14.20
2023-03-13T16:32:52.534Z,14.10
2023-03-13T16:35:20.615Z,14.10
2023-03-13T16:37:48.676Z,13.90
2023-03-13T16:40:21.480Z,13.90
2023-03-13T16:42:49.597Z,13.80
2023-03-13T16:45:18.198Z,13.70
2023-03-13T16:47:47.596Z,13.70
2023-03-13T16:50:25.496Z,13.70
2023-03-13T16:52:54.993Z,13.80
2023-03-13T16:55:28.428Z,13.70
2023-03-13T16:57:56.924Z,13.70
2023-03-13T17:00:27.722Z,13.70
2023-03-13T17:02:57.374Z,13.60
2023-03-13T17:05:26.462Z,13.50
2023-03-13T17:07:54.739Z,13.50
2023-03-13T17:10:27.009Z,13.40
2023-03-13T17:12:55.292Z,13.40
2023-03-13T17:15:25.183Z,13.50
2023-03-13T17:17:57.381Z,13.60
2023-03-13T17:20:27.686Z,13.60
2023-03-13T17:22:57.045Z,13.50
2023-03-13T17:25:26.818Z,13.50
2023-03-13T17:27:55.024Z,13.30
2023-03-13T17:30:26.825Z,13.10
2023-03-13T17:32:55.135Z,12.80
2023-03-13T17:35:24.957Z,12.70
2023-03-13T17:37:52.987Z,12.80
2023-03-13T17:40:24.523Z,12.70
2023-03-13T17:42:54.110Z,12.60
2023-03-13T17:45:22.418Z,12.60
2023-03-13T17:47:50.530Z,12.70
2023-03-13T17:50:27.415Z,12.70
2023-03-13T17:52:56.140Z,12.60
2023-03-13T17:55:24.471Z,12.60
2023-03-13T17:57:54.135Z,12.50
2023-03-13T18:00:25.849Z,12.50
2023-03-13T18:02:53.897Z,12.40
2023-03-13T18:05:22.306Z,12.30
2023-03-13T18:07:50.737Z,12.50
2023-03-13T18:10:22.757Z,12.40
2023-03-13T18:12:53.149Z,12.50
2023-03-13T18:15:24.020Z,12.50
2023-03-13T18:17:53.716Z,12.50
2023-03-13T18:20:24.236Z,12.50
2023-03-13T18:22:52.426Z,12.70
2023-03-13T18:25:20.502Z,12.80
2023-03-13T18:27:48.553Z,12.80
2023-03-13T18:30:22.416Z,12.70
2023-03-13T18:32:50.920Z,12.80
2023-03-13T18:35:19.728Z,12.90
2023-03-13T18:37:48.941Z,12.80
2023-03-13T18:40:21.033Z,13.00
2023-03-13T18:42:49.405Z,13.00
2023-03-13T18:45:22.259Z,13.10
2023-03-13T18:47:50.576Z,12.80
2023-03-13T18:50:24.997Z,12.90
2023-03-13T18:52:55.189Z,12.80
2023-03-13T18:55:23.724Z,12.80
2023-03-13T18:57:51.803Z,12.70
2023-03-13T19:00:24.904Z,12.80
2023-03-13T19:02:53.040Z,12.80
2023-03-13T19:05:22.323Z,12.90
2023-03-13T19:07:50.357Z,13.00
2023-03-13T19:10:24.049Z,12.80
2023-03-13T19:12:53.038Z,12.80
2023-03-13T19:15:25.597Z,12.80
2023-03-13T19:17:56.031Z,12.80
2023-03-13T19:20:25.264Z,12.80
2023-03-13T19:22:55.139Z,12.90
2023-03-13T19:25:23.991Z,12.70
2023-03-13T19:27:52.358Z,12.80
2023-03-13T19:30:23.908Z,12.80
2023-03-13T19:32:52.339Z,12.80
2023-03-13T19:35:21.824Z,12.80
2023-03-13T19:37:50.479Z,13.00
2023-03-13T19:40:21.442Z,12.80
2023-03-13T19:42:49.619Z,12.90
2023-03-13T19:45:19.734Z,12.70
2023-03-13T19:47:49.672Z,12.80
2023-03-13T19:50:20.961Z,12.50
2023-03-13T19:52:49.038Z,12.50
2023-03-13T19:55:17.521Z,12.60
2023-03-13T19:57:45.568Z,12.50
2023-03-13T20:00:21.069Z,12.60
2023-03-13T20:02:52.130Z,12.60
2023-03-13T20:05:20.264Z,12.50
2023-03-13T20:07:48.690Z,12.50
2023-03-13T20:10:16.977Z,12.40
2023-03-13T20:12:45.029Z,12.10
2023-03-13T20:15:13.936Z,12.00
2023-03-13T20:17:41.961Z,12.10
2023-03-13T20:20:13.586Z,12.10
2023-03-13T20:22:42.129Z,11.90
2023-03-13T20:25:11.335Z,11.70
2023-03-13T20:27:40.091Z,11.40
2023-03-13T20:30:10.350Z,11.30
2023-03-13T20:32:49.121Z,11.20
2023-03-13T20:35:26.404Z,11.00
2023-03-13T20:37:54.627Z,10.80
2023-03-13T20:40:22.977Z,10.90
2023-03-13T20:42:51.017Z,10.70
2023-03-13T20:45:19.187Z,10.60
2023-03-13T20:47:47.237Z,10.60
2023-03-13T20:50:15.284Z,10.70
2023-03-13T20:52:45.067Z,10.50
2023-03-13T20:55:13.088Z,10.60
2023-03-13T20:57:41.130Z,10.60
2023-03-13T21:00:12.739Z,10.40
2023-03-13T21:02:40.820Z,10.40
2023-03-13T21:05:10.113Z,10.20
2023-03-13T21:07:38.224Z,10.20
2023-03-13T21:10:09.001Z,10.00
2023-03-13T21:12:37.209Z,10.00
2023-03-13T21:15:06.508Z,9.90
2023-03-13T21:17:35.017Z,9.80
2023-03-13T21:20:06.705Z,9.80
2023-03-13T21:22:34.749Z,9.70
2023-03-13T21:25:04.767Z,9.80
2023-03-13T21:27:35.612Z,9.70
2023-03-13T21:30:04.590Z,9.80
2023-03-13T21:32:32.795Z,9.60
2023-03-13T21:35:00.990Z,9.70
2023-03-13T21:37:30.629Z,9.60
2023-03-13T21:39:59.052Z,9.50
2023-03-13T21:42:27.366Z,9.40
2023-03-13T21:44:56.752Z,9.50
2023-03-13T21:47:25.009Z,9.50
2023-03-13T21:49:53.609Z,9.50
2023-03-13T21:52:23.354Z,9.40
2023-03-13T21:54:51.999Z,9.60
2023-03-13T21:57:20.026Z,9.70
2023-03-13T21:59:48.012Z,9.40
2023-03-13T22:02:17.426Z,9.20
2023-03-13T22:04:45.772Z,9.30
2023-03-13T22:07:13.748Z,9.30
2023-03-13T22:09:41.838Z,9.50
2023-03-13T22:12:09.865Z,9.40
2023-03-13T22:14:38.121Z,9.30
2023-03-13T22:17:06.107Z,9.20
2023-03-13T22:19:35.666Z,9.20
2023-03-13T22:22:03.630Z,9.30
2023-03-13T22:24:32.041Z,9.40
2023-03-13T22:27:05.887Z,9.50
2023-03-13T22:29:39.111Z,9.60
2023-03-13T22:32:07.464Z,9.60
2023-03-13T22:34:36.878Z,9.60
2023-03-13T22:37:04.985Z,9.60
2023-03-13T22:39:33.116Z,10.00
2023-03-13T22:42:01.099Z,10.10
2023-03-13T22:44:29.058Z,10.30
2023-03-13T22:46:57.079Z,10.40
2023-03-13T22:49:25.155Z,10.50
2023-03-13T22:51:54.530Z,10.70
2023-03-13T22:54:22.486Z,10.80
2023-03-13T22:56:50.476Z,10.80
2023-03-13T22:59:18.418Z,10.90
2023-03-13T23:01:46.448Z,10.90
2023-03-13T23:04:14.616Z,11.10
2023-03-13T23:06:43.026Z,11.10
2023-03-13T23:09:14.733Z,11.10
2023-03-13T23:11:42.717Z,11.10
2023-03-13T23:14:10.749Z,11.20
2023-03-13T23:16:38.894Z,11.30
2023-03-13T23:19:07.691Z,11.40
2023-03-13T23:21:35.756Z,11.30
2023-03-13T23:24:03.855Z,11.30
2023-03-13T23:26:33.151Z,11.30
2023-03-13T23:29:01.109Z,11.20
2023-03-13T23:31:29.111Z,11.20
2023-03-13T23:33:58.978Z,11.10
2023-03-13T23:36:27.310Z,11.30
2023-03-13T23:38:57.358Z,11.10
2023-03-13T23:41:25.326Z,11.10
2023-03-13T23:43:54.670Z,11.00
2023-03-13T23:46:25.865Z,11.20
2023-03-13T23:48:54.422Z,11.40
2023-03-13T23:51:22.916Z,11.40
2023-03-13T23:53:51.552Z,11.30
2023-03-13T23:56:19.620Z,11.30
2023-03-13T23:58:47.859Z,11.40
